Time;durP1;ratioP1;P1;durP2;ratioP2;P2;SDS_P1;SDS_P2;PMS_P1;PMS_P2;Temp;Humidity;BMP_temperature;BMP_pressure;BME280_temperature;BME280_humidity;BME280_pressure;Samples;Min_cycle;Max_cycle;Signal;HPM_P1;HPM_P2
2023/02/14 00:00:42;;;;;;;;;103.67;75.33;;;;;-0.96;100.00;101288.00;6275691;20;3683988;-61
2023/02/14 00:03:13;;;;;;;;;119.00;92.00;;;;;-1.21;100.00;101273.63;6283081;20;3698176;-61
2023/02/14 00:05:43;;;;;;;;;107.00;91.33;;;;;-1.01;100.00;101266.84;6282733;20;3682624;-61
2023/02/14 00:08:13;;;;;;;;;107.67;84.33;;;;;-1.01;100.00;101271.25;6284119;20;3705491;-60
2023/02/14 00:10:42;;;;;;;;;107.67;83.67;;;;;-1.09;100.00;101276.44;6280036;20;3701319;-61
2023/02/14 00:13:12;;;;;;;;;104.00;76.67;;;;;-0.98;100.00;101276.53;6280185;20;3688802;-61
2023/02/14 00:15:42;;;;;;;;;111.00;85.67;;;;;-0.93;100.00;101280.13;6281971;20;3709622;-61
2023/02/14 00:18:11;;;;;;;;;109.00;87.33;;;;;-1.22;100.00;101271.88;6281231;20;3686743;-61
2023/02/14 00:20:41;;;;;;;;;103.33;78.67;;;;;-1.26;100.00;101270.97;6276980;20;3678381;-61
2023/02/14 00:23:11;;;;;;;;;115.00;85.33;;;;;-1.20;100.00;101259.63;6279382;20;3704456;-61
2023/02/14 00:25:40;;;;;;;;;108.33;80.33;;;;;-1.16;100.00;101259.69;6281464;20;3671221;-61
2023/02/14 00:28:10;;;;;;;;;108.00;80.00;;;;;-0.97;100.00;101257.25;6315294;20;3690924;-61
2023/02/14 00:30:39;;;;;;;;;109.67;84.33;;;;;-0.94;100.00;101257.28;6276056;20;3707597;-45
2023/02/14 00:33:09;;;;;;;;;108.00;83.67;;;;;-0.80;100.00;101260.06;6280572;20;3681525;-46
2023/02/14 00:35:39;;;;;;;;;108.00;83.00;;;;;-0.72;100.00;101272.44;6278704;20;3689871;-45
2023/02/14 00:38:08;;;;;;;;;93.00;68.33;;;;;-0.62;100.00;101280.44;6281836;20;3633684;-47
2023/02/14 00:40:38;;;;;;;;;96.33;70.67;;;;;-0.70;100.00;101286.53;6310490;20;3655532;-45
2023/02/14 00:43:07;;;;;;;;;106.33;78.67;;;;;-0.87;100.00;101288.09;6311440;20;3694024;-44
2023/02/14 00:45:37;;;;;;;;;103.33;78.67;;;;;-1.12;100.00;101290.44;6280471;20;3686731;-45
2023/02/14 00:48:07;;;;;;;;;112.00;84.33;;;;;-1.15;100.00;101287.78;6280136;20;3704478;-44
2023/02/14 00:50:36;;;;;;;;;109.33;85.33;;;;;-1.10;100.00;101282.56;6276426;20;3695637;-45
2023/02/14 00:53:05;;;;;;;;;73.00;52.00;;;;;-1.19;100.00;101278.06;6278546;20;3578418;-43
2023/02/14 00:55:35;;;;;;;;;107.00;84.00;;;;;-1.02;100.00;101274.75;6313426;20;3697512;-44
2023/02/14 00:58:05;;;;;;;;;107.00;82.33;;;;;-1.04;100.00;101271.22;6280438;20;3680479;-47
2023/02/14 01:00:34;;;;;;;;;99.00;68.67;;;;;-1.21;100.00;101269.28;6277689;20;3664971;-46
2023/02/14 01:03:04;;;;;;;;;130.67;96.33;;;;;-1.30;100.00;101255.97;6310502;20;3679418;-44
2023/02/14 01:05:33;;;;;;;;;127.33;100.67;;;;;-1.43;100.00;101262.84;6279730;20;3713774;-45
2023/02/14 01:08:04;;;;;;;;;113.00;95.67;;;;;-1.68;100.00;101271.31;6279613;20;3700236;-47
2023/02/14 01:10:36;;;;;;;;;124.33;94.00;;;;;-1.77;100.00;101266.78;6275388;20;3698188;-44
2023/02/14 01:13:07;;;;;;;;;109.00;88.00;;;;;-1.99;100.00;101261.19;6279311;20;3697128;-43
2023/02/14 01:15:47;;;;;;;;;122.67;92.33;;;;;-1.71;100.00;101258.97;6282436;20;3706548;-44
2023/02/14 01:18:18;;;;;;;;;105.33;76.33;;;;;-1.91;100.00;101263.06;6279595;20;3670096;-46
2023/02/14 01:20:48;;;;;;;;;90.33;66.33;;;;;-1.92;100.00;101256.00;6310521;20;3647239;-43
2023/02/14 01:23:17;;;;;;;;;79.00;59.50;;;;;-2.25;100.00;101246.75;6310919;20;2887855;-42
2023/02/14 01:25:45;;;;;;;;;81.00;61.50;;;;;-2.42;100.00;101251.75;6282021;20;2873226;-45
2023/02/14 01:28:13;;;;;;;;;57.00;42.50;;;;;-2.65;100.00;101246.09;6279160;20;2500392;-44
2023/02/14 01:30:41;;;;;;;;;74.00;60.00;;;;;-2.39;100.00;101248.31;6271577;20;2500315;-44
2023/02/14 01:33:11;;;;;;;;;95.33;69.00;;;;;-2.61;100.00;101253.16;6288014;20;2901439;-44
2023/02/14 01:35:40;;;;;;;;;101.00;74.00;;;;;-2.24;100.00;101249.44;6317319;20;3679435;-44
2023/02/14 01:38:10;;;;;;;;;99.00;73.33;;;;;-2.26;100.00;101247.63;6282291;20;2894235;-44
2023/02/14 01:40:45;;;;;;;;;89.00;64.67;;;;;-2.03;100.00;101248.88;6313815;20;2895215;-45
2023/02/14 01:43:16;;;;;;;;;95.33;70.67;;;;;-2.03;100.00;101254.13;6316819;20;2898302;-47
2023/02/14 01:45:45;;;;;;;;;95.67;70.33;;;;;-1.95;100.00;101251.59;6317639;20;3659618;-45
2023/02/14 01:48:18;;;;;;;;;94.67;68.00;;;;;-1.88;100.00;101249.94;6315071;20;3663819;-45
2023/02/14 01:50:51;;;;;;;;;93.33;71.33;;;;;-1.70;100.00;101250.19;6312175;20;3672147;-44
2023/02/14 01:53:27;;;;;;;;;83.67;64.00;;;;;-1.51;100.00;101242.53;6310409;20;3640908;-45
2023/02/14 01:56:12;;;;;;;;;86.00;64.00;;;;;-1.43;100.00;101235.63;6314395;20;2905579;-47
2023/02/14 01:58:44;;;;;;;;;80.00;61.00;;;;;-1.39;100.00;101237.44;6309043;20;2500272;-44
2023/02/14 02:01:16;;;;;;;;;91.33;69.00;;;;;-1.37;100.00;101230.41;6282612;20;3648196;-45
2023/02/14 02:03:57;;;;;;;;;90.33;65.67;;;;;-1.36;100.00;101221.66;6314116;20;3666972;-45
2023/02/14 02:06:55;;;;;;;;;95.33;72.00;;;;;-1.59;100.00;101208.22;6312317;20;3645169;-43
2023/02/14 02:10:06;;;;;;;;;82.33;62.33;;;;;-1.46;100.00;101209.25;6311857;20;3622281;-45
2023/02/14 02:12:35;;;;;;;;;85.67;67.33;;;;;-1.49;100.00;101219.75;6310653;20;3633587;-43
2023/02/14 02:15:07;;;;;;;;;89.67;66.33;;;;;-1.55;100.00;101212.66;6313673;20;3660665;-45
2023/02/14 02:18:27;;;;;;;;;87.67;64.00;;;;;-1.64;100.00;101216.03;6317524;20;3656579;-45
2023/02/14 02:22:16;;;;;;;;;91.00;65.00;;;;;-1.59;100.00;101208.22;6313951;20;3653409;-45
2023/02/14 02:25:16;;;;;;;;;92.33;67.33;;;;;-1.45;100.00;101205.72;6314424;20;3655472;-45
2023/02/14 02:28:09;;;;;;;;;91.00;67.00;;;;;-1.38;100.00;101205.81;6313295;20;3642990;-44
2023/02/14 02:31:49;;;;;;;;;84.50;65.50;;;;;-1.33;100.00;101206.75;6316921;20;2887828;-45
2023/02/14 02:35:21;;;;;;;;;91.00;65.00;;;;;-1.36;100.00;101190.94;6284420;20;3651464;-45
2023/02/14 02:39:03;;;;;;;;;87.00;63.67;;;;;-1.13;100.00;101192.94;6317143;20;3651425;-43
2023/02/14 02:41:58;;;;;;;;;87.00;61.67;;;;;-1.11;100.00;101181.56;6312620;20;3661838;-43
2023/02/14 02:45:22;;;;;;;;;85.33;60.33;;;;;-0.99;100.00;101178.13;6312723;20;3663817;-46
2023/02/14 02:48:15;;;;;;;;;79.67;59.00;;;;;-1.04;100.00;101187.75;6307969;20;3641018;-45
2023/02/14 02:54:08;;;;;;;;;72.50;57.00;;;;;-1.06;100.00;101180.69;6276215;20;2500322;-45
2023/02/14 02:56:52;;;;;;;;;74.33;56.67;;;;;-1.02;100.00;101193.06;6275182;20;2884668;-45
2023/02/14 02:59:32;;;;;;;;;74.33;56.67;;;;;-0.96;100.00;101201.00;6311405;20;2893104;-43
2023/02/14 03:02:20;;;;;;;;;73.00;57.00;;;;;-1.13;100.00;101207.00;6313368;20;2868152;-44
2023/02/14 03:04:57;;;;;;;;;77.50;60.50;;;;;-1.13;100.00;101204.38;6284417;20;2871166;-45
2023/02/14 03:07:35;;;;;;;;;93.67;69.33;;;;;-1.55;100.00;101196.84;6279042;20;3637763;-46
2023/02/14 03:10:26;;;;;;;;;81.67;65.00;;;;;-2.43;100.00;101190.38;6312664;20;3629609;-45
2023/02/14 03:13:12;;;;;;;;;76.00;59.50;;;;;-2.54;100.00;101197.22;6309302;20;2500288;-47
2023/02/14 03:16:21;;;;;;;;;84.00;65.50;;;;;-2.93;100.00;101187.78;6285431;20;2888826;-45
2023/02/14 03:19:22;;;;;;;;;78.00;60.00;;;;;-2.84;100.00;101191.44;6279666;20;2879513;-44
2023/02/14 03:22:10;;;;;;;;;84.50;57.50;;;;;-2.88;100.00;101180.88;6275550;20;2500429;-47
2023/02/14 03:25:15;;;;;;;;;75.00;60.00;;;;;-2.69;100.00;101187.31;6275739;20;2500310;-46
2023/02/14 03:28:27;;;;;;;;;75.50;59.50;;;;;-2.70;100.00;101187.31;6274960;20;2500294;-45
2023/02/14 03:31:41;;;;;;;;;78.00;57.50;;;;;-2.52;100.00;101184.97;6276733;20;2500421;-46
2023/02/14 03:34:34;;;;;;;;;78.50;58.00;;;;;-2.55;100.00;101178.81;6278283;20;2489955;-48
2023/02/14 03:37:19;;;;;;;;;85.50;64.00;;;;;-2.47;100.00;101183.31;6272682;20;2500337;-45
2023/02/14 03:40:02;;;;;;;;;97.67;72.00;;;;;-2.65;100.00;101183.00;6275073;20;3635691;-45
2023/02/14 03:42:54;;;;;;;;;99.00;72.00;;;;;-2.35;100.00;101189.59;6310432;20;3656542;-45
2023/02/14 03:45:46;;;;;;;;;84.33;60.67;;;;;-2.23;100.00;101193.31;6315240;20;2896139;-47
2023/02/14 03:48:19;;;;;;;;;95.00;69.33;;;;;-2.25;100.00;101189.75;6310241;20;3660656;-45
2023/02/14 03:50:51;;;;;;;;;97.33;68.67;;;;;-2.43;100.00;101193.00;6308489;20;3659655;-48
2023/02/14 03:53:27;;;;;;;;;83.33;65.00;;;;;-2.36;100.00;101190.47;6310437;20;2880639;-45
2023/02/14 03:56:17;;;;;;;;;90.00;66.33;;;;;-2.49;100.00;101192.91;6312168;20;3651281;-44
2023/02/14 03:58:57;;;;;;;;;82.50;64.00;;;;;-2.08;100.00;101192.66;6311284;20;2885697;-45
2023/02/14 04:02:00;;;;;;;;;92.67;65.67;;;;;-2.32;100.00;101192.28;6278032;20;3662749;-44
2023/02/14 04:04:36;;;;;;;;;94.33;69.00;;;;;-2.35;100.00;101189.59;6306388;20;3664866;-45
2023/02/14 04:07:19;;;;;;;;;100.33;71.33;;;;;-2.22;100.00;101196.81;6310040;20;3673261;-45
2023/02/14 04:09:49;;;;;;;;;114.00;87.33;;;;;-2.39;100.00;101198.31;6311267;20;3699193;-43
2023/02/14 04:12:20;;;;;;;;;128.33;103.67;;;;;-2.30;100.00;101196.69;6274835;20;3697251;-43
2023/02/14 04:15:06;;;;;;;;;149.33;111.67;;;;;-2.13;100.00;101206.59;6278394;20;3717069;-43
2023/02/14 04:20:22;;;;;;;;;74.67;55.00;;;;;-2.39;100.00;101196.56;6308986;20;2894098;-45
2023/02/14 04:22:52;;;;;;;;;106.33;74.33;;;;;-2.49;100.00;101198.16;6314467;20;3677336;-44
2023/02/14 04:25:22;;;;;;;;;97.33;71.33;;;;;-2.27;100.00;101195.88;6274712;20;3634796;-42
2023/02/14 04:27:52;;;;;;;;;84.33;62.67;;;;;-2.25;100.00;101189.75;6310851;20;2899356;-42
2023/02/14 04:30:22;;;;;;;;;94.33;66.67;;;;;-2.17;100.00;101189.88;6311809;20;3658641;-43
2023/02/14 04:32:51;;;;;;;;;91.33;68.67;;;;;-2.32;100.00;101202.81;6313914;20;3656562;-44
2023/02/14 04:35:21;;;;;;;;;272.67;188.67;;;;;-2.30;100.00;101214.25;6313522;20;3699260;-45
2023/02/14 04:37:51;;;;;;;;;187.67;147.67;;;;;-3.01;100.00;101218.28;6277381;20;3691405;-44
2023/02/14 04:40:21;;;;;;;;;168.00;125.67;;;;;-3.22;100.00;101210.03;6278920;20;3709727;-43
2023/02/14 04:42:52;;;;;;;;;161.25;116.75;;;;;-3.05;100.00;101213.88;6272632;20;3729471;-45
2023/02/14 04:45:21;;;;;;;;;103.67;71.33;;;;;-3.03;100.00;101196.34;6307943;20;3658797;-45
2023/02/14 04:47:51;;;;;;;;;114.33;83.33;;;;;-2.96;100.00;101208.75;6308330;20;3684692;-43
2023/02/14 04:50:22;;;;;;;;;118.00;98.00;;;;;-3.00;100.00;101216.56;6312359;20;3715918;-43
2023/02/14 04:52:52;;;;;;;;;117.00;90.00;;;;;-2.94;100.00;101208.81;6281540;20;3699231;-43
2023/02/14 04:55:22;;;;;;;;;112.00;85.00;;;;;-2.85;100.00;101205.44;6279529;20;3689962;-44
2023/02/14 04:57:52;;;;;;;;;114.00;84.00;;;;;-2.87;100.00;101210.66;6282005;20;3698216;-43
2023/02/14 05:00:23;;;;;;;;;110.33;79.67;;;;;-2.89;100.00;101205.38;6277997;20;3686755;-44
2023/02/14 05:02:53;;;;;;;;;117.67;82.33;;;;;-2.94;100.00;101201.78;6278897;20;3707642;-44
2023/02/14 05:05:22;;;;;;;;;111.67;85.33;;;;;-3.12;100.00;101204.97;6279104;20;3688785;-44
2023/02/14 05:07:52;;;;;;;;;112.33;78.67;;;;;-3.01;100.00;101205.16;6284425;20;3675400;-45
2023/02/14 05:10:22;;;;;;;;;113.67;87.00;;;;;-3.05;100.00;101208.59;6316553;20;3694159;-43
2023/02/14 05:12:51;;;;;;;;;114.67;86.00;;;;;-3.20;100.00;101208.31;6284976;20;3685695;-43
2023/02/14 05:15:21;;;;;;;;;116.00;80.33;;;;;-3.15;100.00;101197.03;6317669;20;3688859;-44
2023/02/14 05:17:51;;;;;;;;;115.67;89.67;;;;;-3.09;100.00;101205.03;6282881;20;3703428;-45
2023/02/14 05:20:20;;;;;;;;;111.67;75.67;;;;;-3.50;100.00;101209.50;6285654;20;3675306;-46
2023/02/14 05:22:50;;;;;;;;;107.67;79.00;;;;;-3.22;100.00;101212.66;6313228;20;3695082;-61
2023/02/14 05:25:20;;;;;;;;;113.33;86.33;;;;;-3.15;100.00;101222.44;6315860;20;3681266;-60
2023/02/14 05:27:49;;;;;;;;;112.00;82.33;;;;;-3.24;100.00;101222.22;6280318;20;3676358;-60
2023/02/14 05:30:25;;;;;;;;;99.33;76.00;;;;;-3.26;100.00;101214.34;6318359;20;3642003;-60
2023/02/14 05:32:55;;;;;;;;;111.33;79.00;;;;;-3.32;100.00;101227.34;6312741;20;3667989;-60
2023/02/14 05:35:24;;;;;;;;;110.33;82.67;;;;;-3.48;100.00;101231.38;6315373;20;3673261;-60
2023/02/14 05:37:54;;;;;;;;;113.67;84.67;;;;;-3.24;100.00;101217.84;6314294;20;3695041;-60
2023/02/14 05:40:25;;;;;;;;;105.33;78.00;;;;;-3.32;100.00;101225.63;6281918;20;3665877;-61
2023/02/14 05:42:55;;;;;;;;;103.33;70.50;;;;;-3.33;100.00;101231.72;6311313;20;4435637;-61
2023/02/14 05:45:25;;;;;;;;;115.67;88.00;;;;;-3.22;100.00;101231.91;6314448;20;3685800;-61
2023/02/14 05:47:55;;;;;;;;;114.33;89.67;;;;;-3.25;100.00;101237.13;6285499;20;3692100;-61
2023/02/14 05:50:25;;;;;;;;;106.00;83.00;;;;;-3.23;100.00;101229.28;6279806;20;3666927;-61
2023/02/14 05:52:55;;;;;;;;;118.67;91.33;;;;;-3.28;100.00;101230.94;6316700;20;3703363;-61
2023/02/14 05:55:25;;;;;;;;;124.00;95.00;;;;;-3.20;100.00;101224.97;6285017;20;3707606;-61
2023/02/14 05:57:55;;;;;;;;;129.33;106.00;;;;;-3.14;100.00;101229.44;6283457;20;3703374;-61
2023/02/14 06:00:25;;;;;;;;;129.00;102.67;;;;;-3.23;100.00;101229.28;6283994;20;3713798;-60
2023/02/14 06:02:55;;;;;;;;;129.33;102.00;;;;;-3.13;100.00;101234.72;6287775;20;3721083;-61
2023/02/14 06:05:25;;;;;;;;;162.00;132.33;;;;;-3.01;100.00;101231.44;6286193;20;3722257;-61
2023/02/14 06:07:55;;;;;;;;;165.67;124.33;;;;;-2.96;100.00;101235.03;6281517;20;3724286;-61
2023/02/14 06:10:26;;;;;;;;;166.67;129.67;;;;;-2.91;100.00;101238.63;6280402;20;3711849;-61
2023/02/14 06:12:56;;;;;;;;;167.50;132.25;;;;;-2.84;100.00;101244.00;6286730;20;3734620;-60
2023/02/14 06:15:26;;;;;;;;;144.33;105.67;;;;;-3.38;100.00;101256.97;6281334;20;3723210;-61
2023/02/14 06:17:57;;;;;;;;;136.67;105.00;;;;;-3.19;100.00;101262.59;6277825;20;4472504;-61
2023/02/14 06:20:27;;;;;;;;;147.67;121.00;;;;;-3.01;100.00;101262.09;6317298;20;3719027;-61
2023/02/14 06:22:57;;;;;;;;;123.67;91.67;;;;;-2.94;100.00;101264.84;6283271;20;3702355;-61
2023/02/14 06:25:27;;;;;;;;;126.67;101.33;;;;;-3.00;100.00;101277.88;6284980;20;3703387;-61
2023/02/14 06:27:58;;;;;;;;;135.83;107.33;;;;;-2.61;100.00;101274.19;6283288;20;4463772;-61
2023/02/14 06:30:28;;;;;;;;;136.00;104.00;;;;;-2.04;99.57;101281.28;6311914;20;3721104;-61
2023/02/14 06:32:58;;;;;;;;;155.00;121.67;;;;;-0.99;96.27;101286.22;6283401;20;3718069;-61
2023/02/14 06:35:28;;;;;;;;;148.50;106.25;;;;;-0.48;92.76;101289.38;6285345;20;3727565;-62
2023/02/14 06:37:59;;;;;;;;;146.75;126.75;;;;;-0.18;90.96;101293.16;6281579;20;3726497;-61
2023/02/14 06:40:29;;;;;;;;;151.50;132.75;;;;;0.19;90.98;101286.41;6281302;20;4480452;-61
2023/02/14 06:42:59;;;;;;;;;194.50;166.50;;;;;0.43;89.90;101298.88;6284572;20;4479425;-60
2023/02/14 06:45:29;;;;;;;;;181.75;149.75;;;;;1.18;87.69;101300.94;6282957;20;3725484;-60
2023/02/14 06:48:00;;;;;;;;;158.75;126.00;;;;;0.41;88.60;101305.91;6283569;20;4505078;-61
2023/02/14 06:50:30;;;;;;;;;117.67;95.33;;;;;1.01;88.02;101296.50;6282273;20;3676304;-60
2023/02/14 06:53:00;;;;;;;;;114.00;91.00;;;;;1.13;87.36;101302.69;6284667;20;3695021;-60
2023/02/14 06:55:29;;;;;;;;;95.33;78.00;;;;;1.90;85.91;101309.91;6281531;20;3664954;-60
2023/02/14 06:57:59;;;;;;;;;104.33;81.67;;;;;2.13;84.98;101309.91;6313022;20;3695125;-60
2023/02/14 07:00:27;;;;;;;;;102.67;81.67;;;;;2.81;84.21;101307.06;6278341;20;3692989;-61
2023/02/14 07:02:57;;;;;;;;;97.67;79.00;;;;;3.65;80.59;101303.09;6314425;20;3687846;-60
2023/02/14 07:05:27;;;;;;;;;103.33;86.00;;;;;4.17;79.17;101313.31;6283224;20;3701325;-60
2023/02/14 07:07:57;;;;;;;;;94.00;76.33;;;;;4.73;75.91;101322.47;6285657;20;3670099;-60
2023/02/14 07:10:26;;;;;;;;;87.33;64.67;;;;;5.53;73.36;101315.22;6283687;20;3631577;-59
2023/02/14 07:12:56;;;;;;;;;88.00;70.00;;;;;5.82;71.18;101315.69;6313379;20;3645294;-60
2023/02/14 07:15:26;;;;;;;;;86.00;64.33;;;;;6.30;70.59;101322.94;6313875;20;3653395;-60
2023/02/14 07:17:56;;;;;;;;;78.00;58.00;;;;;7.20;67.16;101322.94;6315055;20;3649212;-60
2023/02/14 07:20:25;;;;;;;;;81.67;60.33;;;;;6.63;66.56;101316.06;6315262;20;3663805;-60
2023/02/14 07:22:55;;;;;;;;;74.00;58.33;;;;;7.18;64.93;101320.31;6314521;20;3631930;-60
2023/02/14 07:25:27;;;;;;;;;70.33;54.00;;;;;7.24;65.15;101320.19;6314262;20;3641388;-60
2023/02/14 07:27:57;;;;;;;;;70.00;54.33;;;;;7.55;64.53;101314.16;6316608;20;2879602;-61
2023/02/14 07:30:26;;;;;;;;;68.67;52.00;;;;;7.73;63.86;101314.66;6310071;20;3642990;-60
2023/02/14 07:32:57;;;;;;;;;66.33;52.67;;;;;8.19;62.88;101317.09;6315486;20;2875512;-60
2023/02/14 07:35:27;;;;;;;;;71.67;55.33;;;;;7.13;66.84;101322.19;6315064;20;3637747;-60
2023/02/14 07:37:57;;;;;;;;;74.67;58.67;;;;;7.37;65.81;101310.13;6316196;20;3635697;-60
2023/02/14 07:40:28;;;;;;;;;79.67;61.33;;;;;5.82;69.35;101318.34;6314013;20;3633666;-60
2023/02/14 07:42:59;;;;;;;;;76.67;57.00;;;;;3.97;78.39;101311.69;6311852;20;3632542;-60
2023/02/14 07:45:29;;;;;;;;;81.00;60.33;;;;;2.49;85.83;101312.47;6313574;20;3654414;-60
2023/02/14 07:48:00;;;;;;;;;76.67;57.00;;;;;2.16;90.93;101314.31;6313912;20;3641946;-61
2023/02/14 07:50:30;;;;;;;;;62.67;49.00;;;;;2.03;93.18;101321.38;6312959;20;3628639;-60
2023/02/14 07:53:00;;;;;;;;;89.67;70.67;;;;;2.50;92.16;101322.19;6315690;20;3639886;-61
2023/02/14 07:55:29;;;;;;;;;88.67;64.33;;;;;2.39;93.11;101325.72;6312411;20;3641930;-60
2023/02/14 07:57:59;;;;;;;;;82.33;63.33;;;;;2.70;92.19;101314.19;6310267;20;3649232;-60
2023/02/14 08:00:29;;;;;;;;;85.67;63.33;;;;;2.78;92.56;101323.00;6310728;20;3654919;-60
2023/02/14 08:02:58;;;;;;;;;81.67;62.33;;;;;3.15;91.28;101321.06;6315196;20;3624216;-60
2023/02/14 08:05:28;;;;;;;;;78.33;62.33;;;;;2.73;92.41;101323.00;6313475;20;3635799;-60
2023/02/14 08:07:58;;;;;;;;;80.33;61.33;;;;;3.05;93.13;101317.59;6314522;20;3637784;-60
2023/02/14 08:10:27;;;;;;;;;76.00;60.33;;;;;2.97;92.72;101318.50;6311516;20;2872357;-60
2023/02/14 08:12:57;;;;;;;;;76.00;57.00;;;;;2.80;93.18;101321.22;6313880;20;3643059;-60
2023/02/14 08:18:22;;;;;;;;;79.67;61.00;;;;;3.55;92.78;101315.53;6310094;20;3644036;-61
2023/02/14 08:20:51;;;;;;;;;82.33;60.00;;;;;3.65;92.08;101313.72;6310927;20;3657571;-61
2023/02/14 08:23:21;;;;;;;;;83.33;64.33;;;;;4.09;91.71;101312.50;6312530;20;3644547;-61
2023/02/14 08:25:52;;;;;;;;;72.00;55.00;;;;;3.45;92.88;101324.44;6314867;20;2889938;-61
2023/02/14 08:28:22;;;;;;;;;83.00;63.33;;;;;3.90;92.90;101327.72;6310882;20;3652376;-61
2023/02/14 08:30:53;;;;;;;;;70.67;55.33;;;;;4.48;90.78;101323.66;6312406;20;2878477;-61
2023/02/14 08:33:22;;;;;;;;;67.50;52.00;;;;;4.26;90.56;101322.97;6310958;20;2877399;-61
2023/02/14 08:35:52;;;;;;;;;69.67;52.67;;;;;4.14;91.72;101323.97;6280375;20;3642019;-61
2023/02/14 08:38:21;;;;;;;;;68.50;53.50;;;;;4.10;91.87;101328.41;6310729;20;2874236;-61
2023/02/14 08:40:50;;;;;;;;;68.33;52.00;;;;;4.37;92.14;101324.63;6287097;20;3630544;-61
2023/02/14 08:43:20;;;;;;;;;73.00;57.00;;;;;4.59;91.19;101322.63;6321209;20;3509777;-61
2023/02/14 08:45:53;;;;;;;;;75.00;55.67;;;;;4.64;90.98;101325.25;6319555;20;3640947;-61
2023/02/14 08:48:24;;;;;;;;;70.00;55.00;;;;;4.83;89.81;101328.56;6324037;20;3610778;-61
2023/02/14 08:50:53;;;;;;;;;70.67;57.00;;;;;5.00;88.15;101339.91;6322793;20;2877501;-60
2023/02/14 08:53:23;;;;;;;;;75.00;57.00;;;;;4.76;86.93;101338.41;6325998;20;3645077;-61
2023/02/14 08:55:52;;;;;;;;;70.67;49.67;;;;;4.79;87.60;101334.81;6325367;20;3645072;-62
2023/02/14 08:58:22;;;;;;;;;69.33;53.67;;;;;4.95;87.34;101332.84;6321547;20;2879839;-58
2023/02/14 09:00:51;;;;;;;;;41.00;33.00;;;;;5.03;86.55;101334.56;6320884;20;2864961;-62
2023/02/14 09:03:21;;;;;;;;;66.33;53.00;;;;;5.13;86.87;101335.28;6323026;20;2877576;-61
2023/02/14 09:05:51;;;;;;;;;70.33;53.00;;;;;5.49;84.95;101339.25;6321909;20;3645062;-61
2023/02/14 09:08:20;;;;;;;;;69.00;56.33;;;;;5.45;83.76;101334.88;6323493;20;2875300;-61
2023/02/14 09:10:51;;;;;;;;;65.33;50.33;;;;;5.80;82.78;101332.63;6320539;20;2872284;-61
2023/02/14 09:13:20;;;;;;;;;68.33;51.00;;;;;6.21;81.17;101337.28;6323976;20;3631514;-62
2023/02/14 09:15:50;;;;;;;;;73.67;59.33;;;;;5.88;81.37;101341.38;6325770;20;3618009;-61
2023/02/14 09:18:19;;;;;;;;;65.33;48.00;;;;;5.67;80.92;101343.44;6322745;20;3642978;-61
2023/02/14 09:20:49;;;;;;;;;61.33;46.33;;;;;5.33;82.45;101335.06;6320897;20;2878547;-61
2023/02/14 09:23:18;;;;;;;;;69.67;50.00;;;;;5.60;81.86;101347.09;6321758;20;3626422;-61
2023/02/14 09:25:47;;;;;;;;;59.00;48.00;;;;;5.96;79.70;101346.63;6323733;20;2871172;-61
2023/02/14 09:28:16;;;;;;;;;57.00;46.50;;;;;5.60;80.57;101344.44;6292740;20;2840936;-61
2023/02/14 09:30:45;;;;;;;;;70.00;54.67;;;;;6.18;79.95;101345.34;6287119;20;2869164;-62
2023/02/14 09:33:15;;;;;;;;;81.67;66.00;;;;;5.88;79.61;101354.69;6324579;20;3620130;-62
2023/02/14 09:35:47;;;;;;;;;73.67;58.33;;;;;6.20;77.80;101354.22;6321467;20;3621172;-61
2023/02/14 09:38:19;;;;;;;;;61.67;48.33;;;;;6.17;77.46;101350.72;6323394;20;2875379;-63
2023/02/14 09:40:49;;;;;;;;;68.33;51.33;;;;;6.49;77.79;101355.50;6321066;20;3642985;-62
2023/02/14 09:43:45;;;;;;;;;64.33;51.00;;;;;6.26;76.55;101359.44;6317896;20;3617946;-61
2023/02/14 09:46:16;;;;;;;;;70.67;54.67;;;;;6.57;75.94;101348.22;6321083;20;3631621;-61
2023/02/14 09:48:48;;;;;;;;;63.33;49.00;;;;;6.70;74.98;101351.56;6320271;20;2871464;-61
2023/02/14 09:51:24;;;;;;;;;67.33;50.33;;;;;7.08;73.64;101357.91;6315402;20;3638839;-61
2023/02/14 09:54:33;;;;;;;;;69.33;52.00;;;;;6.78;72.99;101353.16;6315163;20;3629454;-61
2023/02/14 09:57:34;;;;;;;;;62.00;50.00;;;;;6.53;72.49;101347.41;6317240;20;2868060;-61
2023/02/14 10:00:32;;;;;;;;;53.00;42.33;;;;;7.14;71.49;101350.69;6315138;20;2860752;-61
2023/02/14 10:03:46;;;;;;;;;64.33;52.00;;;;;6.95;71.56;101352.84;6315394;20;2871147;-61
2023/02/14 10:06:50;;;;;;;;;87.00;67.00;;;;;7.50;69.91;101353.47;6312553;20;3658598;-61
2023/02/14 10:10:13;;;;;;;;;61.00;46.33;;;;;6.36;72.19;101337.03;6281019;20;3630476;-61
2023/02/14 10:12:56;;;;;;;;;66.00;51.33;;;;;6.38;73.92;101337.88;6313094;20;2871302;-61
2023/02/14 10:15:37;;;;;;;;;65.00;49.67;;;;;6.70;73.21;101325.72;6309644;20;3637789;-62
2023/02/14 10:18:26;;;;;;;;;66.00;50.67;;;;;6.51;72.97;101338.53;6313496;20;3621111;-62
2023/02/14 10:21:01;;;;;;;;;68.00;48.00;;;;;6.50;73.08;101341.22;6314702;20;3619011;-62
2023/02/14 10:23:47;;;;;;;;;64.33;48.33;;;;;6.41;73.12;101341.41;6313479;20;2878965;-62
2023/02/14 10:26:36;;;;;;;;;64.67;48.33;;;;;6.87;71.59;101336.06;6313326;20;3640901;-61
2023/02/14 10:29:19;;;;;;;;;75.33;59.67;;;;;7.20;70.69;101333.63;6313023;20;3632714;-62
2023/02/14 10:32:02;;;;;;;;;66.00;53.00;;;;;7.46;69.11;101335.75;6304785;20;2865996;-62
2023/02/14 10:34:50;;;;;;;;;62.67;46.00;;;;;7.40;69.76;101336.78;6308862;20;3628369;-62
2023/02/14 10:37:50;;;;;;;;;66.33;51.33;;;;;7.23;70.07;101333.56;6315599;20;3636736;-61
2023/02/14 10:40:47;;;;;;;;;72.67;56.00;;;;;7.43;69.24;101327.81;6315905;20;3621087;-61
2023/02/14 10:43:59;;;;;;;;;56.00;46.00;;;;;7.40;69.01;101325.22;6313330;20;2866086;-62
2023/02/14 10:47:02;;;;;;;;;70.67;52.67;;;;;7.73;68.50;101328.00;6309471;20;3631531;-62
2023/02/14 10:50:10;;;;;;;;;64.33;50.67;;;;;7.94;68.06;101324.81;6312809;20;3636743;-62
2023/02/14 10:53:25;;;;;;;;;58.00;45.33;;;;;7.89;67.87;101316.91;6312957;20;3621193;-62
2023/02/14 10:56:17;;;;;;;;;69.00;50.67;;;;;8.20;65.93;101317.94;6312560;20;3645084;-62
2023/02/14 10:58:50;;;;;;;;;72.00;50.00;;;;;8.12;65.98;101311.00;6312887;20;3653393;-62
2023/02/14 11:01:19;;;;;;;;;57.33;43.33;;;;;8.31;64.70;101326.56;6308341;20;3627721;-62
2023/02/14 11:04:07;;;;;;;;;47.00;40.00;;;;;8.37;63.69;101315.69;6312083;20;2854482;-61
2023/02/14 11:06:37;;;;;;;;;60.00;44.33;;;;;8.29;64.26;101305.22;6281975;20;2876515;-60
2023/02/14 11:09:08;;;;;;;;;56.00;41.67;;;;;7.97;65.83;101305.16;6312639;20;3621263;-60
2023/02/14 11:11:58;;;;;;;;;52.00;44.33;;;;;8.31;63.84;101303.38;6312182;20;2856698;-60
2023/02/14 11:14:37;;;;;;;;;53.33;43.00;;;;;8.43;64.35;101307.56;6308120;20;2851353;-60
2023/02/14 11:17:30;;;;;;;;;59.00;44.00;;;;;8.45;63.80;101308.41;6308713;20;3637812;-61
2023/02/14 11:20:29;;;;;;;;;54.00;46.00;;;;;8.62;63.77;101312.41;6313579;20;2856600;-61
2023/02/14 11:22:58;;;;;;;;;53.33;42.00;;;;;8.95;63.71;101308.81;6316334;20;2867046;-59
2023/02/14 11:25:34;;;;;;;;;57.00;42.33;;;;;8.70;62.88;101302.38;6313591;20;2862766;-61
2023/02/14 11:28:17;;;;;;;;;57.33;42.00;;;;;8.44;64.14;101305.75;6310403;20;3604453;-61
2023/02/14 11:30:49;;;;;;;;;60.67;45.33;;;;;8.69;64.18;101305.94;6312435;20;3647137;-60
2023/02/14 11:33:44;;;;;;;;;50.67;39.67;;;;;8.68;62.65;101307.75;6311475;20;3600279;-61
2023/02/14 11:36:16;;;;;;;;;58.33;46.00;;;;;8.58;63.01;101308.94;6312695;20;3619052;-61
2023/02/14 11:39:30;;;;;;;;;56.67;44.67;;;;;8.32;63.13;101306.91;6309872;20;2863964;-61
2023/02/14 11:42:04;;;;;;;;;55.67;43.00;;;;;8.30;63.71;101304.28;6308981;20;3620140;-62